createdAt,value
2022-10-12T00:02:27.908Z,5.45
2022-10-12T00:04:54.797Z,5.38
2022-10-12T00:07:28.395Z,5.37
2022-10-12T00:10:03.164Z,5.42
2022-10-12T00:12:32.452Z,5.42
2022-10-12T00:15:16.932Z,5.43
2022-10-12T00:18:00.105Z,5.43
2022-10-12T00:20:27.200Z,5.43
2022-10-12T00:23:00.875Z,5.46
2022-10-12T00:25:30.331Z,5.39
2022-10-12T00:28:15.440Z,5.35
2022-10-12T00:30:55.282Z,5.35
2022-10-12T00:33:39.900Z,5.36
2022-10-12T00:36:38.865Z,5.38
2022-10-12T00:39:08.111Z,5.33
2022-10-12T00:41:52.363Z,5.33
2022-10-12T00:44:40.951Z,5.28
2022-10-12T00:47:34.872Z,5.32
2022-10-12T00:50:13.094Z,5.29
2022-10-12T00:53:03.019Z,5.27
2022-10-12T00:55:51.137Z,5.27
2022-10-12T00:58:24.573Z,5.27
2022-10-12T01:01:02.364Z,5.30
2022-10-12T01:03:42.496Z,5.32
2022-10-12T01:06:25.936Z,5.27
2022-10-12T01:09:04.961Z,5.33
2022-10-12T01:11:39.018Z,5.37
2022-10-12T01:14:11.716Z,5.36
2022-10-12T01:16:40.916Z,5.31
2022-10-12T01:19:33.704Z,5.31
2022-10-12T01:22:09.594Z,5.23
2022-10-12T01:25:01.192Z,5.19
2022-10-12T01:27:34.118Z,5.15
2022-10-12T01:30:26.015Z,5.19
2022-10-12T01:32:57.634Z,5.22
2022-10-12T01:35:36.747Z,5.20
2022-10-12T01:38:32.650Z,5.19
2022-10-12T01:41:01.537Z,5.17
2022-10-12T01:43:40.709Z,5.14
2022-10-12T01:46:27.634Z,5.14
2022-10-12T01:48:56.230Z,5.08
2022-10-12T01:51:31.340Z,5.02
2022-10-12T01:54:20.049Z,4.97
2022-10-12T01:57:09.869Z,5.02
2022-10-12T02:00:03.735Z,5.11
2022-10-12T02:02:31.100Z,5.05
2022-10-12T02:05:08.777Z,5.13
2022-10-12T02:07:48.264Z,5.20
2022-10-12T02:10:57.995Z,5.24
2022-10-12T02:13:27.280Z,5.19
2022-10-12T02:15:55.009Z,5.14
2022-10-12T02:18:23.310Z,5.13
2022-10-12T02:21:00.481Z,5.23
2022-10-12T02:23:45.286Z,5.18
2022-10-12T02:26:30.537Z,5.18
2022-10-12T02:29:09.444Z,5.20
2022-10-12T02:32:17.322Z,5.17
2022-10-12T02:35:28.159Z,5.18
2022-10-12T02:38:12.358Z,5.30
2022-10-12T02:40:52.586Z,5.35
2022-10-12T02:43:54.337Z,5.48
2022-10-12T02:46:30.429Z,5.38
2022-10-12T02:49:08.237Z,5.30
2022-10-12T02:51:42.800Z,5.27
2022-10-12T02:54:38.701Z,5.17
2022-10-12T02:57:11.025Z,5.11
2022-10-12T02:59:53.497Z,5.30
2022-10-12T03:02:29.756Z,5.28
2022-10-12T03:05:00.146Z,5.29
2022-10-12T03:07:33.197Z,5.31
2022-10-12T03:10:07.830Z,5.31
2022-10-12T03:12:36.986Z,5.23
2022-10-12T03:15:16.452Z,5.23
2022-10-12T03:17:56.489Z,5.25
2022-10-12T03:20:29.511Z,5.21
2022-10-12T03:23:03.018Z,5.11
2022-10-12T03:25:34.933Z,5.03
2022-10-12T03:28:12.734Z,4.92
2022-10-12T03:30:43.597Z,4.90
2022-10-12T03:33:20.172Z,4.89
2022-10-12T03:36:02.397Z,4.93
2022-10-12T03:38:31.080Z,4.91
2022-10-12T03:41:06.698Z,4.94
2022-10-12T03:43:48.198Z,5.00
2022-10-12T03:46:18.315Z,5.11
2022-10-12T03:49:08.332Z,5.24
2022-10-12T03:51:43.948Z,5.17
2022-10-12T03:54:15.420Z,5.29
2022-10-12T03:56:45.426Z,5.34
2022-10-12T03:59:17.978Z,5.42
2022-10-12T04:02:16.851Z,5.36
2022-10-12T04:04:56.024Z,5.34
2022-10-12T04:07:34.732Z,5.27
2022-10-12T04:13:07.040Z,5.37
2022-10-12T04:15:47.241Z,5.28
2022-10-12T04:18:32.966Z,5.49
2022-10-12T04:21:10.200Z,5.66
2022-10-12T04:23:36.959Z,5.53
2022-10-12T04:26:05.341Z,5.47
2022-10-12T04:28:36.562Z,5.45
2022-10-12T04:31:03.364Z,5.38
2022-10-12T04:33:38.008Z,5.38
2022-10-12T04:36:17.942Z,5.29
2022-10-12T04:38:44.690Z,5.24
2022-10-12T04:41:20.552Z,5.24
2022-10-12T04:43:55.824Z,5.30
2022-10-12T04:46:27.125Z,5.27
2022-10-12T04:48:59.282Z,5.37
2022-10-12T04:51:40.314Z,5.52
2022-10-12T04:54:07.226Z,5.38
2022-10-12T04:56:47.736Z,5.39
2022-10-12T04:59:17.428Z,5.34
2022-10-12T05:01:56.500Z,5.37
2022-10-12T05:04:29.263Z,5.28
2022-10-12T05:06:55.988Z,5.23
2022-10-12T05:09:22.786Z,5.21
2022-10-12T05:11:59.274Z,5.25
2022-10-12T05:14:36.448Z,5.23
2022-10-12T05:17:12.518Z,5.17
2022-10-12T05:19:42.231Z,5.32
2022-10-12T05:22:12.831Z,5.33
2022-10-12T05:24:42.625Z,5.32
2022-10-12T05:27:34.406Z,5.30
2022-10-12T05:30:03.160Z,5.36
2022-10-12T05:35:40.997Z,5.35
2022-10-12T05:38:19.194Z,5.37
2022-10-12T05:40:49.999Z,5.25
2022-10-12T05:43:21.445Z,5.34
2022-10-12T05:46:14.597Z,5.29
2022-10-12T05:48:41.401Z,5.59
2022-10-12T05:51:33.496Z,5.55
2022-10-12T05:54:24.943Z,5.45
2022-10-12T05:57:00.480Z,5.50
2022-10-12T05:59:46.463Z,5.47
2022-10-12T06:10:53.932Z,5.09
2022-10-12T06:13:30.006Z,5.04
2022-10-12T06:19:28.908Z,5.09
2022-10-12T06:25:54.413Z,5.25
2022-10-12T06:28:21.585Z,5.34
2022-10-12T06:30:59.805Z,5.46
2022-10-12T06:33:32.644Z,5.54
2022-10-12T06:35:59.253Z,5.63
2022-10-12T06:38:31.871Z,5.72
2022-10-12T06:40:58.480Z,5.78
2022-10-12T06:43:27.199Z,5.89
2022-10-12T06:46:01.797Z,5.99
2022-10-12T06:48:57.894Z,6.12
2022-10-12T06:51:35.201Z,6.19
2022-10-12T06:54:27.773Z,6.37
2022-10-12T06:57:02.572Z,6.49
2022-10-12T07:01:01.939Z,6.65
2022-10-12T07:03:28.609Z,6.78
2022-10-12T07:06:04.522Z,6.87
2022-10-12T07:09:55.504Z,6.96
2022-10-12T07:12:24.234Z,6.98
2022-10-12T07:15:31.305Z,7.06
2022-10-12T07:17:57.993Z,7.24
2022-10-12T07:24:38.317Z,7.22
2022-10-12T07:27:42.038Z,7.44
2022-10-12T07:30:35.699Z,7.67
2022-10-12T07:36:21.896Z,7.80
2022-10-12T07:38:49.261Z,7.86
2022-10-12T07:41:18.565Z,7.87
2022-10-12T07:43:45.618Z,7.88
2022-10-12T07:46:49.121Z,7.91
2022-10-12T07:50:18.438Z,8.05
2022-10-12T07:57:11.587Z,8.31
2022-10-12T07:59:53.118Z,8.33
2022-10-12T08:02:20.099Z,8.31
2022-10-12T08:08:45.771Z,8.59
2022-10-12T08:11:28.519Z,8.61
2022-10-12T08:13:56.066Z,8.55
2022-10-12T08:16:23.071Z,8.55
2022-10-12T08:18:49.772Z,8.74
2022-10-12T08:27:25.900Z,8.86
2022-10-12T08:29:53.084Z,8.89
2022-10-12T08:32:21.767Z,8.97
2022-10-12T08:36:08.333Z,9.26
2022-10-12T08:43:33.659Z,8.99
2022-10-12T08:51:19.573Z,9.73
2022-10-12T08:53:56.696Z,9.79
2022-10-12T09:01:47.670Z,10.04
2022-10-12T09:05:11.678Z,9.92
2022-10-12T09:13:02.205Z,9.94
2022-10-12T09:20:46.544Z,9.92
2022-10-12T09:23:27.468Z,9.69
2022-10-12T09:25:59.792Z,9.94
2022-10-12T09:29:39.495Z,10.14
2022-10-12T09:36:35.651Z,10.13
2022-10-12T09:43:42.048Z,10.65
2022-10-12T09:46:51.231Z,10.68
2022-10-12T09:53:05.134Z,10.75
2022-10-12T09:56:19.481Z,10.67
2022-10-12T09:58:56.266Z,10.79
2022-10-12T10:01:58.012Z,10.91
2022-10-12T10:05:04.143Z,10.96
2022-10-12T10:08:00.912Z,11.17
2022-10-12T10:10:39.256Z,11.27
2022-10-12T10:16:27.539Z,11.61
2022-10-12T10:19:28.108Z,11.36
2022-10-12T10:25:23.747Z,11.23
2022-10-12T10:31:33.298Z,11.01
2022-10-12T10:37:38.729Z,11.25
2022-10-12T10:40:34.762Z,11.26
2022-10-12T10:43:51.087Z,11.21
2022-10-12T10:46:36.838Z,11.34
2022-10-12T10:50:14.241Z,11.46
2022-10-12T10:53:05.672Z,11.60
2022-10-12T10:56:24.443Z,11.54
2022-10-12T10:59:19.592Z,11.67
2022-10-12T11:02:45.511Z,11.70
2022-10-12T11:06:18.193Z,11.81
2022-10-12T11:09:22.476Z,11.64
2022-10-12T11:19:46.030Z,11.87
2022-10-12T11:26:23.363Z,12.21
2022-10-12T11:29:15.281Z,12.18
2022-10-12T11:38:27.227Z,12.55
2022-10-12T11:41:36.438Z,12.56
2022-10-12T11:48:05.581Z,12.63
2022-10-12T11:50:49.944Z,12.68
2022-10-12T11:57:00.992Z,12.45
2022-10-12T12:03:26.912Z,12.39
2022-10-12T12:06:31.334Z,12.19
2022-10-12T12:09:55.003Z,12.10
2022-10-12T12:12:38.705Z,12.15
2022-10-12T12:15:34.506Z,12.15
2022-10-12T12:18:58.428Z,12.30
2022-10-12T12:22:14.517Z,12.16
2022-10-12T12:25:25.235Z,12.04
2022-10-12T12:28:32.268Z,11.91
2022-10-12T12:31:49.937Z,11.63
2022-10-12T12:34:54.454Z,11.59
2022-10-12T12:41:24.003Z,11.86
2022-10-12T12:44:32.820Z,11.71
2022-10-12T12:50:55.432Z,11.51
2022-10-12T12:53:39.086Z,11.46
2022-10-12T12:56:45.887Z,11.52
2022-10-12T13:04:06.154Z,12.15
2022-10-12T13:07:19.303Z,12.06
2022-10-12T13:14:23.448Z,11.76
2022-10-12T13:20:45.793Z,11.41
2022-10-12T13:24:11.136Z,11.27
2022-10-12T13:27:48.402Z,11.29
2022-10-12T13:34:56.066Z,11.60
2022-10-12T13:37:43.254Z,11.79
2022-10-12T13:41:17.527Z,11.48
2022-10-12T13:48:34.339Z,11.82
2022-10-12T13:52:12.064Z,11.89
2022-10-12T13:55:14.210Z,11.75
2022-10-12T14:01:40.064Z,11.63
2022-10-12T14:07:29.494Z,11.50
2022-10-12T14:11:00.851Z,11.43
2022-10-12T14:14:15.868Z,11.64
2022-10-12T14:19:57.891Z,11.15
2022-10-12T14:22:57.550Z,11.30
2022-10-12T14:25:58.292Z,11.49
2022-10-12T14:28:39.242Z,11.27
2022-10-12T14:31:46.154Z,11.09
2022-10-12T14:38:31.072Z,11.19
2022-10-12T14:40:56.750Z,11.18
2022-10-12T14:43:41.320Z,10.99
2022-10-12T14:46:29.495Z,10.78
2022-10-12T14:49:09.346Z,10.83
2022-10-12T14:52:11.712Z,10.79
2022-10-12T14:55:04.733Z,11.07
2022-10-12T14:57:44.334Z,11.14
2022-10-12T15:00:52.315Z,11.42
2022-10-12T15:04:11.144Z,11.44
2022-10-12T15:09:54.730Z,11.07
2022-10-12T15:12:35.344Z,10.75
2022-10-12T15:15:50.389Z,10.57
2022-10-12T15:18:35.084Z,10.47
2022-10-12T15:21:26.138Z,10.29
2022-10-12T15:27:35.171Z,9.97
2022-10-12T15:30:14.060Z,9.95
2022-10-12T15:32:52.596Z,10.24
2022-10-12T15:35:45.844Z,10.32
2022-10-12T15:38:22.473Z,10.15
2022-10-12T15:44:46.899Z,10.06
2022-10-12T15:47:33.847Z,9.85
2022-10-12T15:50:54.908Z,9.65
2022-10-12T15:56:22.245Z,9.62
2022-10-12T15:58:52.250Z,9.59
2022-10-12T16:01:37.495Z,9.54
2022-10-12T16:04:05.859Z,9.61
2022-10-12T16:06:35.290Z,9.62
2022-10-12T16:09:05.352Z,9.70
2022-10-12T16:11:31.985Z,9.48
2022-10-12T16:17:31.453Z,9.38
2022-10-12T16:20:14.713Z,9.32
2022-10-12T16:22:44.763Z,9.26
2022-10-12T16:28:21.931Z,9.20
2022-10-12T16:31:01.826Z,9.23
2022-10-12T16:33:28.542Z,9.10
2022-10-12T16:35:55.293Z,8.92
2022-10-12T16:38:28.060Z,8.81
2022-10-12T16:41:11.305Z,8.71
2022-10-12T16:43:41.207Z,8.66
2022-10-12T16:46:08.260Z,8.59
2022-10-12T16:48:44.519Z,8.53
2022-10-12T16:51:39.597Z,8.66
2022-10-12T16:54:11.183Z,8.76
2022-10-12T16:56:57.850Z,8.76
2022-10-12T16:59:25.973Z,8.72
2022-10-12T17:02:22.486Z,8.51
2022-10-12T17:04:49.351Z,8.47
2022-10-12T17:07:26.273Z,8.38
2022-10-12T17:13:18.042Z,8.16
2022-10-12T17:15:51.864Z,8.23
2022-10-12T17:18:34.538Z,8.35
2022-10-12T17:21:16.974Z,8.49
2022-10-12T17:23:56.237Z,8.45
2022-10-12T17:26:26.320Z,8.56
2022-10-12T17:29:15.507Z,8.56
2022-10-12T17:31:48.565Z,8.55
2022-10-12T17:37:15.943Z,8.51
2022-10-12T17:40:00.872Z,8.49
2022-10-12T17:42:28.382Z,8.56
2022-10-12T17:44:59.408Z,8.56
2022-10-12T17:47:31.624Z,8.72
2022-10-12T17:49:59.319Z,8.64
2022-10-12T17:53:10.889Z,8.66
2022-10-12T17:55:48.478Z,8.44
2022-10-12T17:58:22.739Z,8.36
2022-10-12T18:00:51.714Z,8.23
2022-10-12T18:03:28.877Z,8.36
2022-10-12T18:05:57.925Z,8.49
2022-10-12T18:08:26.210Z,8.55
2022-10-12T18:10:59.593Z,8.48
2022-10-12T18:13:26.913Z,8.37
2022-10-12T18:15:56.880Z,8.54
2022-10-12T18:18:27.770Z,8.60
2022-10-12T18:21:00.186Z,8.52
2022-10-12T18:23:41.117Z,8.39
2022-10-12T18:28:56.327Z,8.43
2022-10-12T18:31:28.090Z,8.46
2022-10-12T18:33:58.184Z,8.50
2022-10-12T18:36:26.990Z,8.46
2022-10-12T18:38:53.999Z,8.62
2022-10-12T18:41:48.156Z,8.70
2022-10-12T18:44:22.194Z,8.84
2022-10-12T18:46:58.180Z,8.85
2022-10-12T18:49:24.979Z,8.81
2022-10-12T18:52:26.602Z,8.80
2022-10-12T18:54:53.924Z,8.88
2022-10-12T18:57:31.571Z,8.93
2022-10-12T19:00:01.867Z,8.93
2022-10-12T19:02:41.279Z,8.98
2022-10-12T19:05:36.068Z,8.99
2022-10-12T19:08:27.731Z,9.02
2022-10-12T19:11:06.602Z,8.98
2022-10-12T19:13:37.146Z,8.98
2022-10-12T19:19:13.336Z,9.16
2022-10-12T19:21:53.526Z,9.18
2022-10-12T19:24:37.950Z,9.11
2022-10-12T19:27:16.922Z,9.16
2022-10-12T19:30:01.110Z,9.14
2022-10-12T19:35:36.081Z,9.17
2022-10-12T19:38:10.090Z,9.14
2022-10-12T19:40:39.771Z,9.13
2022-10-12T19:43:12.000Z,9.21
2022-10-12T19:45:59.597Z,9.32
2022-10-12T19:48:36.857Z,9.24
2022-10-12T19:51:29.244Z,9.22
2022-10-12T19:54:03.749Z,9.08
2022-10-12T19:57:21.626Z,8.94
2022-10-12T20:00:04.695Z,9.01
2022-10-12T20:02:48.135Z,8.90
2022-10-12T20:05:28.361Z,8.82
2022-10-12T20:11:16.950Z,8.88
2022-10-12T20:16:48.696Z,8.87
2022-10-12T20:19:21.383Z,8.73
2022-10-12T20:22:15.583Z,8.61
2022-10-12T20:25:15.173Z,8.45
2022-10-12T20:27:53.267Z,8.40
2022-10-12T20:30:58.754Z,8.31
2022-10-12T20:33:35.242Z,8.35
2022-10-12T20:36:03.959Z,8.35
2022-10-12T20:38:49.820Z,8.17
2022-10-12T20:41:45.995Z,8.15
2022-10-12T20:44:15.421Z,8.15
2022-10-12T20:46:57.285Z,8.18
2022-10-12T20:49:30.409Z,8.19
2022-10-12T20:52:00.440Z,8.09
2022-10-12T20:54:43.842Z,8.09
2022-10-12T20:57:30.962Z,8.05
2022-10-12T21:00:32.783Z,7.99
2022-10-12T21:03:01.627Z,7.96
2022-10-12T21:05:53.713Z,8.13
2022-10-12T21:08:28.059Z,8.15
2022-10-12T21:10:56.838Z,8.15
2022-10-12T21:13:52.938Z,8.10
2022-10-12T21:16:39.689Z,8.03
2022-10-12T21:19:41.308Z,8.04
2022-10-12T21:24:48.584Z,7.89
2022-10-12T21:27:22.516Z,7.84
2022-10-12T21:29:59.158Z,7.92
2022-10-12T21:32:30.091Z,7.97
2022-10-12T21:35:11.775Z,7.93
2022-10-12T21:37:45.661Z,7.95
2022-10-12T21:40:42.752Z,7.94
2022-10-12T21:43:17.376Z,8.06
2022-10-12T21:45:46.810Z,8.17
2022-10-12T21:48:26.223Z,8.19
2022-10-12T21:51:30.541Z,8.21
2022-10-12T21:54:14.570Z,8.30
2022-10-12T21:56:58.913Z,8.42
2022-10-12T21:59:48.464Z,8.49
2022-10-12T22:02:45.311Z,8.46
2022-10-12T22:05:50.495Z,8.45
2022-10-12T22:11:56.316Z,8.44
2022-10-12T22:14:22.939Z,8.61
2022-10-12T22:16:57.164Z,8.78
2022-10-12T22:19:33.358Z,8.84
2022-10-12T22:22:24.612Z,8.63
2022-10-12T22:24:58.466Z,8.42
2022-10-12T22:27:42.906Z,8.32
2022-10-12T22:30:46.606Z,8.22
2022-10-12T22:33:34.576Z,8.26
2022-10-12T22:36:08.323Z,8.35
2022-10-12T22:38:41.276Z,8.29
2022-10-12T22:41:22.116Z,8.25
2022-10-12T22:47:28.411Z,8.33
2022-10-12T22:50:34.270Z,8.23
2022-10-12T22:53:07.465Z,8.13
2022-10-12T22:55:40.635Z,8.09
2022-10-12T22:59:11.216Z,8.30
2022-10-12T23:01:46.517Z,8.31
2022-10-12T23:04:17.671Z,8.27
2022-10-12T23:06:59.943Z,8.15
2022-10-12T23:09:30.021Z,8.16
2022-10-12T23:12:16.849Z,8.20
2022-10-12T23:14:50.867Z,8.27
2022-10-12T23:17:17.517Z,8.40
2022-10-12T23:20:02.055Z,8.40
2022-10-12T23:22:31.457Z,8.61
2022-10-12T23:25:04.830Z,8.60
2022-10-12T23:27:49.771Z,8.59
2022-10-12T23:30:19.611Z,8.79
2022-10-12T23:33:59.857Z,8.81
2022-10-12T23:36:39.018Z,8.78
2022-10-12T23:39:52.302Z,8.69
2022-10-12T23:43:04.892Z,8.79
2022-10-12T23:45:35.190Z,8.71
2022-10-12T23:48:16.271Z,8.67
2022-10-12T23:53:40.204Z,8.61
2022-10-12T23:56:42.048Z,8.74
2022-10-12T23:59:22.254Z,8.83
